CheckWX is a tool to help pilots better visualize weather data.  It is not intended as a substitute for an official pre-flight weather briefing.

19:56:52 UTC

KPOB TAF
Pope AAF Airport
Fayetteville, North Carolina, USA
TAF AMD KPOB 201930Z 2019/2123 25013G20KT 8000 -SHRA VCTS SCT045CB QNH2964INS TEMPO 2020/2022 26020G35KT 4800 TSRAGR BKN030CB TEMPO 2022/2103 27035G50KT 1600 +TSRAGR BKN020CB BECMG 2102/2103 28006KT 9999 NSW FEW010 BKN025 QNH2972INS BECMG 2114/2115 30015G25KT 9999 FEW050 QNH2992INS TX36/2021Z TN22/2105Z

Jun-20@
19:00 UTC

Jun-20 @ 19:00 UTC

Jun-21@
02:00 UTC

Jun-21 @ 02:00 UTC

TAF AMD KPOB 201930Z 2019/2123 25013G20KT 8000 -SHRA VCTS SCT045CB QNH2964INS
Wind
  • 250° at 13 KTS
  • {Gusting to 20 KTS
Conditions
Light Rain, Area Thunderstorm
Cloud Levels
  • Scattered at 4,500' AGL

Jun-20@
20:00 UTC

Jun-20 @ 20:00 UTC

Jun-20@
22:00 UTC

Jun-20 @ 22:00 UTC

TEMPO 2020/2022 26020G35KT 4800 TSRAGR BKN030CB

Temporary

Temporary Changes expected for less than half the time period

Wind
  • 260° at 20 KTS
  • {Gusting to 35 KTS
Conditions
Thunderstorm, Rain, Thunderstorm, Hail
Cloud Levels
  • Broken at 3,000' AGL

Jun-20@
22:00 UTC

Jun-20 @ 22:00 UTC

Jun-21@
03:00 UTC

Jun-21 @ 03:00 UTC

TEMPO 2022/2103 27035G50KT 1600 +TSRAGR BKN020CB

Temporary

Temporary Changes expected for less than half the time period

Wind
  • 270° at 35 KTS
  • {Gusting to 50 KTS
Conditions
Heavy Thunderstorm, Heavy Rain, Heavy Thunderstorm, Heavy Hail
Cloud Levels
  • Broken at 2,000' AGL

Jun-21@
02:00 UTC

Jun-21 @ 02:00 UTC

Jun-21@
14:00 UTC

Jun-21 @ 14:00 UTC

BECMG 2102/2103 28006KT 9999 NSW FEW010 BKN025 QNH2972INS

Becoming

Becoming Conditions expected by Fri, Jun 21, 2019 @ 03:00 UTC

Wind
  • 280° at 6 KTS
Conditions
No significant weather
Cloud Levels
  • Few at 1,000' AGL
  • Broken at 2,500' AGL

Jun-21@
14:00 UTC

Jun-21 @ 14:00 UTC

Jun-21@
23:00 UTC

Jun-21 @ 23:00 UTC

BECMG 2114/2115 30015G25KT 9999 FEW050 QNH2992INS TX36/2021Z TN22/2105Z

Becoming

Becoming Conditions expected by Fri, Jun 21, 2019 @ 15:00 UTC

Wind
  • 300° at 15 KTS
  • {Gusting to 25 KTS
Conditions
No significant weather
Cloud Levels
  • Few at 5,000' AGL